Pellston Regional Airport of Emmet County Airport
KPLN : now visible

Airfield :











YOU CAN JOIN US ON...

 
LOGIN :

Register | Disclaimer

   EN    FR    IT 

 









Legend :    VFR   Marginal VFR   IFR   Intensive IFR   Very Intensive IFR
Visi :
Ceiling :
>= 8 km
>= 3000ft
5 to 8 km
1000 to 3000 ft
1500m to 5 km
500 to 1000 ft
800 to 1500m
200 to 500 ft
< 800m
< 200 ft
Symbols :   Thunderstorms  Fog  Heavy snow  Heavy precipitations  Wind > 20 kt






- Airport Elevation : 721 ft
- IATA code : PLN


KPLN - Pellston Regional of Emmet County

CURRENT METAR :
  • 180454Z AUTO 14009KT 10SM OVC060 M03/M06 A2996 RMK AO2 SLP156 T10331056 410171250

EXPIRED METARs :
  • 180354Z AUTO 14011KT 10SM BKN050 BKN080 OVC095 M03/M06 A2999 RMK AO2 SLP170 T10331056
  • 180254Z AUTO 15008KT 10SM SCT055 BKN070 OVC100 M03/M06 A3004 RMK AO2 SNE04 SLP187 P0000 60000 T10331061 58020

TAF KPLN
Valid from the 18 at 06:00 until the 19 at 06:00 UTC


180524Z 1806/1906 14010KT P6SM -SN SCT025 OVC060
TEMPO 1806/1809 2SM -SN OVC016
FM180900 12010KT 2SM -SN OVC018
TEMPO 1809/1813 1/2SM SN OVC008
FM181500 30013G22KT P6SM VCSH OVC025
FM181800 30016G26KT P6SM OVC035
FM190000 30012G21KT 6SM -SHSN OVC025



MET'MAP, your aeronautical weather chart ! - Copyright ORBIFLY December 2007 - Disclaimer

ORBIFLY MET'MAP TEAM :

Programming & Development : Alexandra Zaïnal
Concept & original design : Baudouin d'Aumeries
Assistance for programming : Marc-Olivier Méhu
Technical & hardware support : Manuel Goepfert

Contact : metmap@orbifly.com




SOURCES & CREDITS :

   NOAA       Earth
Advisory